createdAt,value
2022-09-25T00:11:39.725Z,10.82
2022-09-25T00:28:29.489Z,10.68
2022-09-25T00:45:21.047Z,10.56
2022-09-25T01:02:14.464Z,10.51
2022-09-25T01:19:14.021Z,10.43
2022-09-25T01:36:05.734Z,10.35
2022-09-25T01:52:58.929Z,10.28
2022-09-25T02:09:52.659Z,10.19
2022-09-25T02:26:40.902Z,10.15
2022-09-25T02:43:43.415Z,10.11
2022-09-25T03:00:33.080Z,10.06
2022-09-25T03:17:23.500Z,9.96
2022-09-25T03:34:13.091Z,9.90
2022-09-25T03:51:01.199Z,9.91
2022-09-25T04:07:49.183Z,9.97
2022-09-25T04:24:52.015Z,10.00
2022-09-25T04:41:40.210Z,10.08
2022-09-25T04:58:28.229Z,10.21
2022-09-25T05:15:16.440Z,10.27
2022-09-25T05:32:04.670Z,10.32
2022-09-25T05:48:52.458Z,10.52
2022-09-25T06:05:40.778Z,10.76
2022-09-25T06:22:28.630Z,11.09
2022-09-25T06:39:16.901Z,11.38
2022-09-25T06:56:05.708Z,11.47
2022-09-25T07:12:54.109Z,11.78
2022-09-25T07:29:42.209Z,12.10
2022-09-25T07:46:31.651Z,12.38
2022-09-25T08:03:20.379Z,12.70
2022-09-25T08:20:09.815Z,13.15
2022-09-25T08:36:58.401Z,13.51
2022-09-25T08:53:47.266Z,13.41
2022-09-25T09:10:42.224Z,13.52
2022-09-25T09:27:39.051Z,13.85
2022-09-25T09:44:40.242Z,14.13
2022-09-25T10:01:46.616Z,14.52
2022-09-25T10:18:41.258Z,14.67
2022-09-25T10:35:41.741Z,14.90
2022-09-25T10:52:29.829Z,15.10
2022-09-25T11:09:20.638Z,15.29
2022-09-25T11:26:14.110Z,15.42
2022-09-25T11:43:07.233Z,15.45
2022-09-25T12:00:08.869Z,15.49
2022-09-25T12:17:06.336Z,15.86
2022-09-25T12:34:01.855Z,15.88
2022-09-25T12:50:58.549Z,15.97
2022-09-25T13:07:55.961Z,15.93
2022-09-25T13:24:48.429Z,15.88
2022-09-25T13:41:36.520Z,16.01
2022-09-25T13:58:25.847Z,16.16
2022-09-25T14:15:28.441Z,16.11
2022-09-25T14:32:53.942Z,16.09
2022-09-25T14:49:42.115Z,15.94
2022-09-25T15:06:32.608Z,15.77
2022-09-25T15:23:23.237Z,15.69
2022-09-25T15:40:25.856Z,15.59
2022-09-25T15:57:17.378Z,15.42
2022-09-25T16:14:23.389Z,15.30
2022-09-25T16:31:12.087Z,15.23
2022-09-25T16:48:01.339Z,15.00
2022-09-25T17:04:51.005Z,14.81
2022-09-25T17:21:39.155Z,14.66
2022-09-25T17:38:27.434Z,14.63
2022-09-25T17:55:18.541Z,14.60
2022-09-25T18:12:07.269Z,14.58
2022-09-25T18:28:55.289Z,14.60
2022-09-25T18:45:51.323Z,14.53
2022-09-25T19:02:41.281Z,14.53
2022-09-25T19:19:35.420Z,14.59
2022-09-25T19:36:25.336Z,14.54
2022-09-25T19:53:13.860Z,14.33
2022-09-25T20:10:02.675Z,14.00
2022-09-25T20:26:50.833Z,13.66
2022-09-25T20:43:39.084Z,13.47
